sensor_id;sensor_type;location;lat;lon;timestamp;temperature;humidity
17715;DHT22;8977;50.902;4.314;2023-05-07T00:02:14;19.50;99.90
17715;DHT22;8977;50.902;4.314;2023-05-07T00:04:47;19.50;99.90
17715;DHT22;8977;50.902;4.314;2023-05-07T00:07:18;19.50;99.90
17715;DHT22;8977;50.902;4.314;2023-05-07T00:09:46;19.50;99.90
17715;DHT22;8977;50.902;4.314;2023-05-07T00:12:16;19.40;99.90
17715;DHT22;8977;50.902;4.314;2023-05-07T00:14:43;19.40;99.90
17715;DHT22;8977;50.902;4.314;2023-05-07T00:17:14;19.40;99.90
17715;DHT22;8977;50.902;4.314;2023-05-07T00:19:41;19.40;99.90
17715;DHT22;8977;50.902;4.314;2023-05-07T00:22:10;19.40;99.90
17715;DHT22;8977;50.902;4.314;2023-05-07T00:24:38;19.40;99.90
17715;DHT22;8977;50.902;4.314;2023-05-07T00:27:05;19.40;99.90
17715;DHT22;8977;50.902;4.314;2023-05-07T00:29:32;19.40;99.90
17715;DHT22;8977;50.902;4.314;2023-05-07T00:32:00;19.40;99.90
17715;DHT22;8977;50.902;4.314;2023-05-07T00:34:27;19.40;99.90
17715;DHT22;8977;50.902;4.314;2023-05-07T00:36:54;19.40;99.90
17715;DHT22;8977;50.902;4.314;2023-05-07T00:39:26;19.40;99.90
17715;DHT22;8977;50.902;4.314;2023-05-07T00:41:55;19.40;99.90
17715;DHT22;8977;50.902;4.314;2023-05-07T00:44:24;19.40;99.90
17715;DHT22;8977;50.902;4.314;2023-05-07T00:46:54;19.40;99.90
17715;DHT22;8977;50.902;4.314;2023-05-07T00:49:35;19.40;99.90
17715;DHT22;8977;50.902;4.314;2023-05-07T00:52:06;19.40;99.90
17715;DHT22;8977;50.902;4.314;2023-05-07T00:54:35;19.30;99.90
17715;DHT22;8977;50.902;4.314;2023-05-07T00:57:04;19.30;99.90
17715;DHT22;8977;50.902;4.314;2023-05-07T00:59:32;19.30;99.90
17715;DHT22;8977;50.902;4.314;2023-05-07T01:02:03;19.30;99.90
17715;DHT22;8977;50.902;4.314;2023-05-07T01:04:30;19.30;99.90
17715;DHT22;8977;50.902;4.314;2023-05-07T01:06:58;19.30;99.90
17715;DHT22;8977;50.902;4.314;2023-05-07T01:09:28;19.30;99.90
17715;DHT22;8977;50.902;4.314;2023-05-07T01:12:01;19.30;99.90
17715;DHT22;8977;50.902;4.314;2023-05-07T01:14:30;19.30;99.90
17715;DHT22;8977;50.902;4.314;2023-05-07T01:17:04;19.30;99.90
17715;DHT22;8977;50.902;4.314;2023-05-07T01:19:32;19.30;99.90
17715;DHT22;8977;50.902;4.314;2023-05-07T01:22:08;19.30;99.90
17715;DHT22;8977;50.902;4.314;2023-05-07T01:24:37;19.30;99.90
17715;DHT22;8977;50.902;4.314;2023-05-07T01:27:05;19.20;99.90
17715;DHT22;8977;50.902;4.314;2023-05-07T01:29:38;19.20;99.90
17715;DHT22;8977;50.902;4.314;2023-05-07T01:32:05;19.20;99.90
17715;DHT22;8977;50.902;4.314;2023-05-07T01:34:37;19.20;99.90
17715;DHT22;8977;50.902;4.314;2023-05-07T01:37:04;19.20;99.90
17715;DHT22;8977;50.902;4.314;2023-05-07T01:39:32;19.20;99.90
17715;DHT22;8977;50.902;4.314;2023-05-07T01:42:02;19.20;99.90
17715;DHT22;8977;50.902;4.314;2023-05-07T01:44:34;19.20;99.90
17715;DHT22;8977;50.902;4.314;2023-05-07T01:47:02;19.20;99.90
17715;DHT22;8977;50.902;4.314;2023-05-07T01:49:29;19.10;99.90
17715;DHT22;8977;50.902;4.314;2023-05-07T01:51:57;19.10;99.90
17715;DHT22;8977;50.902;4.314;2023-05-07T01:54:27;19.10;99.90
17715;DHT22;8977;50.902;4.314;2023-05-07T01:56:57;19.10;99.90
17715;DHT22;8977;50.902;4.314;2023-05-07T01:59:25;19.00;99.90
17715;DHT22;8977;50.902;4.314;2023-05-07T02:01:54;19.00;99.90
17715;DHT22;8977;50.902;4.314;2023-05-07T02:04:23;19.00;99.90
17715;DHT22;8977;50.902;4.314;2023-05-07T02:06:51;19.00;99.90
17715;DHT22;8977;50.902;4.314;2023-05-07T02:09:19;18.90;99.90
17715;DHT22;8977;50.902;4.314;2023-05-07T02:11:46;18.90;99.90
17715;DHT22;8977;50.902;4.314;2023-05-07T02:14:13;18.90;99.90
17715;DHT22;8977;50.902;4.314;2023-05-07T02:16:42;18.80;99.90
17715;DHT22;8977;50.902;4.314;2023-05-07T02:19:09;18.90;99.90
17715;DHT22;8977;50.902;4.314;2023-05-07T02:21:39;18.80;99.90
17715;DHT22;8977;50.902;4.314;2023-05-07T02:24:11;18.80;99.90
17715;DHT22;8977;50.902;4.314;2023-05-07T02:26:39;18.80;99.90
17715;DHT22;8977;50.902;4.314;2023-05-07T02:29:09;18.80;99.90
17715;DHT22;8977;50.902;4.314;2023-05-07T02:31:36;18.80;99.90
17715;DHT22;8977;50.902;4.314;2023-05-07T02:34:05;18.80;99.90
17715;DHT22;8977;50.902;4.314;2023-05-07T02:36:35;18.70;99.90
17715;DHT22;8977;50.902;4.314;2023-05-07T02:39:02;18.70;99.90
17715;DHT22;8977;50.902;4.314;2023-05-07T02:41:29;18.70;99.90
17715;DHT22;8977;50.902;4.314;2023-05-07T02:43:56;18.70;99.90
17715;DHT22;8977;50.902;4.314;2023-05-07T02:46:23;18.70;99.90
17715;DHT22;8977;50.902;4.314;2023-05-07T02:48:50;18.60;99.90
17715;DHT22;8977;50.902;4.314;2023-05-07T02:51:21;18.70;99.90
17715;DHT22;8977;50.902;4.314;2023-05-07T02:53:54;18.70;99.90
17715;DHT22;8977;50.902;4.314;2023-05-07T02:56:30;18.60;99.90
17715;DHT22;8977;50.902;4.314;2023-05-07T02:59:00;18.70;99.90
17715;DHT22;8977;50.902;4.314;2023-05-07T03:01:27;18.60;99.90
17715;DHT22;8977;50.902;4.314;2023-05-07T03:03:54;18.60;99.90
17715;DHT22;8977;50.902;4.314;2023-05-07T03:06:25;18.60;99.90
17715;DHT22;8977;50.902;4.314;2023-05-07T03:08:52;18.60;99.90
17715;DHT22;8977;50.902;4.314;2023-05-07T03:11:22;18.60;99.90
17715;DHT22;8977;50.902;4.314;2023-05-07T03:13:49;18.60;99.90
17715;DHT22;8977;50.902;4.314;2023-05-07T03:16:19;18.60;99.90
17715;DHT22;8977;50.902;4.314;2023-05-07T03:18:46;18.60;99.90
17715;DHT22;8977;50.902;4.314;2023-05-07T03:21:14;18.60;99.90
17715;DHT22;8977;50.902;4.314;2023-05-07T03:23:42;18.60;99.90
17715;DHT22;8977;50.902;4.314;2023-05-07T03:26:09;18.60;99.90
17715;DHT22;8977;50.902;4.314;2023-05-07T03:28:37;18.60;99.90
17715;DHT22;8977;50.902;4.314;2023-05-07T03:31:04;18.60;99.90
17715;DHT22;8977;50.902;4.314;2023-05-07T03:33:50;18.60;99.90
17715;DHT22;8977;50.902;4.314;2023-05-07T03:36:19;18.70;99.90
17715;DHT22;8977;50.902;4.314;2023-05-07T03:38:48;18.90;99.90
17715;DHT22;8977;50.902;4.314;2023-05-07T03:41:21;18.80;99.90
17715;DHT22;8977;50.902;4.314;2023-05-07T03:43:48;18.80;99.90
17715;DHT22;8977;50.902;4.314;2023-05-07T03:46:15;18.70;99.90
17715;DHT22;8977;50.902;4.314;2023-05-07T03:48:42;18.70;99.90
17715;DHT22;8977;50.902;4.314;2023-05-07T03:51:15;18.70;99.90
17715;DHT22;8977;50.902;4.314;2023-05-07T03:53:43;18.70;99.90
17715;DHT22;8977;50.902;4.314;2023-05-07T03:56:12;18.70;99.90
17715;DHT22;8977;50.902;4.314;2023-05-07T03:58:39;18.70;99.90
17715;DHT22;8977;50.902;4.314;2023-05-07T04:01:09;18.70;99.90
17715;DHT22;8977;50.902;4.314;2023-05-07T04:03:37;18.70;99.90
17715;DHT22;8977;50.902;4.314;2023-05-07T04:06:07;18.70;99.90
17715;DHT22;8977;50.902;4.314;2023-05-07T04:08:34;18.70;99.90
17715;DHT22;8977;50.902;4.314;2023-05-07T04:11:01;18.70;99.90
17715;DHT22;8977;50.902;4.314;2023-05-07T04:13:31;18.70;99.90
17715;DHT22;8977;50.902;4.314;2023-05-07T04:15:58;18.70;99.90
17715;DHT22;8977;50.902;4.314;2023-05-07T04:18:25;18.70;99.90
17715;DHT22;8977;50.902;4.314;2023-05-07T04:20:52;18.70;99.90
17715;DHT22;8977;50.902;4.314;2023-05-07T04:23:32;18.70;99.90
17715;DHT22;8977;50.902;4.314;2023-05-07T04:26:04;18.70;99.90
17715;DHT22;8977;50.902;4.314;2023-05-07T04:28:34;18.70;99.90
17715;DHT22;8977;50.902;4.314;2023-05-07T04:31:10;18.70;99.90
17715;DHT22;8977;50.902;4.314;2023-05-07T04:33:43;18.70;99.90
17715;DHT22;8977;50.902;4.314;2023-05-07T04:36:10;18.70;99.90
17715;DHT22;8977;50.902;4.314;2023-05-07T04:38:38;18.70;99.90
17715;DHT22;8977;50.902;4.314;2023-05-07T04:41:06;18.70;99.90
17715;DHT22;8977;50.902;4.314;2023-05-07T04:43:38;18.70;99.90
17715;DHT22;8977;50.902;4.314;2023-05-07T04:46:05;18.70;99.90
17715;DHT22;8977;50.902;4.314;2023-05-07T04:48:32;18.70;99.90
17715;DHT22;8977;50.902;4.314;2023-05-07T04:50:59;18.60;99.90
17715;DHT22;8977;50.902;4.314;2023-05-07T04:53:26;18.60;99.90
17715;DHT22;8977;50.902;4.314;2023-05-07T04:55:55;18.60;99.90
17715;DHT22;8977;50.902;4.314;2023-05-07T04:58:23;18.60;99.90
17715;DHT22;8977;50.902;4.314;2023-05-07T05:00:52;18.70;99.90
17715;DHT22;8977;50.902;4.314;2023-05-07T05:03:19;18.70;99.90
17715;DHT22;8977;50.902;4.314;2023-05-07T05:05:48;18.70;99.90
17715;DHT22;8977;50.902;4.314;2023-05-07T05:08:15;18.70;99.90
17715;DHT22;8977;50.902;4.314;2023-05-07T05:10:42;18.70;99.90
17715;DHT22;8977;50.902;4.314;2023-05-07T05:13:10;18.70;99.90
17715;DHT22;8977;50.902;4.314;2023-05-07T05:15:38;18.70;99.90
17715;DHT22;8977;50.902;4.314;2023-05-07T05:18:06;18.70;99.90
17715;DHT22;8977;50.902;4.314;2023-05-07T05:20:33;18.70;99.90
17715;DHT22;8977;50.902;4.314;2023-05-07T05:23:00;18.70;99.90
17715;DHT22;8977;50.902;4.314;2023-05-07T05:25:27;18.80;99.90
17715;DHT22;8977;50.902;4.314;2023-05-07T05:27:55;18.80;99.90
17715;DHT22;8977;50.902;4.314;2023-05-07T05:30:22;18.80;99.90
17715;DHT22;8977;50.902;4.314;2023-05-07T05:32:49;18.80;99.90
17715;DHT22;8977;50.902;4.314;2023-05-07T05:35:17;18.80;99.90
17715;DHT22;8977;50.902;4.314;2023-05-07T05:37:44;18.80;99.90
17715;DHT22;8977;50.902;4.314;2023-05-07T05:40:12;18.80;99.90
17715;DHT22;8977;50.902;4.314;2023-05-07T05:42:39;18.80;99.90
17715;DHT22;8977;50.902;4.314;2023-05-07T05:45:07;18.80;99.90
17715;DHT22;8977;50.902;4.314;2023-05-07T05:47:34;18.80;99.90
17715;DHT22;8977;50.902;4.314;2023-05-07T05:50:01;18.90;99.90
17715;DHT22;8977;50.902;4.314;2023-05-07T05:52:29;18.90;99.90
17715;DHT22;8977;50.902;4.314;2023-05-07T05:54:56;18.90;99.90
17715;DHT22;8977;50.902;4.314;2023-05-07T05:57:31;18.90;99.90
17715;DHT22;8977;50.902;4.314;2023-05-07T05:59:58;18.90;99.90
17715;DHT22;8977;50.902;4.314;2023-05-07T06:02:25;18.90;99.90
17715;DHT22;8977;50.902;4.314;2023-05-07T06:04:52;18.90;99.90
17715;DHT22;8977;50.902;4.314;2023-05-07T06:07:19;18.90;99.90
17715;DHT22;8977;50.902;4.314;2023-05-07T06:09:47;18.90;99.90
17715;DHT22;8977;50.902;4.314;2023-05-07T06:12:14;18.90;99.90
17715;DHT22;8977;50.902;4.314;2023-05-07T06:14:43;18.90;99.90
17715;DHT22;8977;50.902;4.314;2023-05-07T06:17:10;19.00;99.90
17715;DHT22;8977;50.902;4.314;2023-05-07T06:19:38;19.00;99.90
17715;DHT22;8977;50.902;4.314;2023-05-07T06:22:05;19.00;99.90
17715;DHT22;8977;50.902;4.314;2023-05-07T06:24:33;19.00;99.90
17715;DHT22;8977;50.902;4.314;2023-05-07T06:27:04;18.90;99.90
17715;DHT22;8977;50.902;4.314;2023-05-07T06:29:31;19.00;99.90
17715;DHT22;8977;50.902;4.314;2023-05-07T06:32:06;18.90;99.90
17715;DHT22;8977;50.902;4.314;2023-05-07T06:34:34;18.90;99.90
17715;DHT22;8977;50.902;4.314;2023-05-07T06:37:01;18.90;99.90
17715;DHT22;8977;50.902;4.314;2023-05-07T06:39:28;18.90;99.90
17715;DHT22;8977;50.902;4.314;2023-05-07T06:41:54;18.90;99.90
17715;DHT22;8977;50.902;4.314;2023-05-07T06:44:23;18.90;99.90
17715;DHT22;8977;50.902;4.314;2023-05-07T06:46:50;18.90;99.90
17715;DHT22;8977;50.902;4.314;2023-05-07T06:49:17;18.90;99.90
17715;DHT22;8977;50.902;4.314;2023-05-07T06:51:44;18.90;99.90
17715;DHT22;8977;50.902;4.314;2023-05-07T06:54:11;18.90;99.90
17715;DHT22;8977;50.902;4.314;2023-05-07T06:56:38;18.90;99.90
17715;DHT22;8977;50.902;4.314;2023-05-07T06:59:06;18.90;99.90
17715;DHT22;8977;50.902;4.314;2023-05-07T07:01:34;18.80;99.90
17715;DHT22;8977;50.902;4.314;2023-05-07T07:04:01;18.80;99.90
17715;DHT22;8977;50.902;4.314;2023-05-07T07:06:28;18.80;99.90
17715;DHT22;8977;50.902;4.314;2023-05-07T07:08:57;18.90;99.90
17715;DHT22;8977;50.902;4.314;2023-05-07T07:11:24;18.90;99.90
17715;DHT22;8977;50.902;4.314;2023-05-07T07:13:51;18.90;99.90
17715;DHT22;8977;50.902;4.314;2023-05-07T07:16:20;18.90;99.90
17715;DHT22;8977;50.902;4.314;2023-05-07T07:18:48;18.90;99.90
17715;DHT22;8977;50.902;4.314;2023-05-07T07:21:15;18.90;99.90
17715;DHT22;8977;50.902;4.314;2023-05-07T07:23:42;18.90;99.90
17715;DHT22;8977;50.902;4.314;2023-05-07T07:26:09;18.80;99.90
17715;DHT22;8977;50.902;4.314;2023-05-07T07:28:42;18.90;99.90
17715;DHT22;8977;50.902;4.314;2023-05-07T07:31:09;18.90;99.90
17715;DHT22;8977;50.902;4.314;2023-05-07T07:33:37;18.90;99.90
17715;DHT22;8977;50.902;4.314;2023-05-07T07:36:07;18.90;99.90
17715;DHT22;8977;50.902;4.314;2023-05-07T07:38:34;19.00;99.90
17715;DHT22;8977;50.902;4.314;2023-05-07T07:41:01;19.00;99.90
17715;DHT22;8977;50.902;4.314;2023-05-07T07:43:28;19.00;99.90
17715;DHT22;8977;50.902;4.314;2023-05-07T07:45:55;19.00;99.90
17715;DHT22;8977;50.902;4.314;2023-05-07T07:48:22;19.00;99.90
17715;DHT22;8977;50.902;4.314;2023-05-07T07:50:49;19.00;99.90
17715;DHT22;8977;50.902;4.314;2023-05-07T07:53:18;19.00;99.90
17715;DHT22;8977;50.902;4.314;2023-05-07T07:55:46;19.00;99.90
17715;DHT22;8977;50.902;4.314;2023-05-07T07:58:14;19.10;99.90
17715;DHT22;8977;50.902;4.314;2023-05-07T08:00:41;19.10;99.90
17715;DHT22;8977;50.902;4.314;2023-05-07T08:03:09;19.00;99.90
17715;DHT22;8977;50.902;4.314;2023-05-07T08:05:36;19.00;99.90
17715;DHT22;8977;50.902;4.314;2023-05-07T08:08:10;19.00;99.90
17715;DHT22;8977;50.902;4.314;2023-05-07T08:10:38;19.10;99.90
17715;DHT22;8977;50.902;4.314;2023-05-07T08:13:06;19.10;99.90
17715;DHT22;8977;50.902;4.314;2023-05-07T08:15:33;19.00;99.90
17715;DHT22;8977;50.902;4.314;2023-05-07T08:18:01;19.00;99.90
17715;DHT22;8977;50.902;4.314;2023-05-07T08:20:28;19.00;99.90
17715;DHT22;8977;50.902;4.314;2023-05-07T08:22:55;19.00;99.90
17715;DHT22;8977;50.902;4.314;2023-05-07T08:25:22;19.00;99.90
17715;DHT22;8977;50.902;4.314;2023-05-07T08:27:52;19.10;99.90
17715;DHT22;8977;50.902;4.314;2023-05-07T08:30:19;19.10;99.90
17715;DHT22;8977;50.902;4.314;2023-05-07T08:32:46;19.10;99.90
17715;DHT22;8977;50.902;4.314;2023-05-07T08:35:15;19.10;99.90
17715;DHT22;8977;50.902;4.314;2023-05-07T08:37:42;19.00;99.90
17715;DHT22;8977;50.902;4.314;2023-05-07T08:40:10;19.10;99.90
17715;DHT22;8977;50.902;4.314;2023-05-07T08:42:37;19.10;99.90
17715;DHT22;8977;50.902;4.314;2023-05-07T08:45:09;19.10;99.90
17715;DHT22;8977;50.902;4.314;2023-05-07T08:47:40;19.10;99.90
17715;DHT22;8977;50.902;4.314;2023-05-07T08:50:11;19.10;99.90
17715;DHT22;8977;50.902;4.314;2023-05-07T08:52:44;19.10;99.90
17715;DHT22;8977;50.902;4.314;2023-05-07T08:55:12;19.10;99.90
17715;DHT22;8977;50.902;4.314;2023-05-07T08:57:40;19.00;99.90
17715;DHT22;8977;50.902;4.314;2023-05-07T09:00:13;19.10;99.90
17715;DHT22;8977;50.902;4.314;2023-05-07T09:02:40;19.10;99.90
17715;DHT22;8977;50.902;4.314;2023-05-07T09:05:09;19.10;99.90
17715;DHT22;8977;50.902;4.314;2023-05-07T09:07:36;19.10;99.90
17715;DHT22;8977;50.902;4.314;2023-05-07T09:10:05;19.10;99.90
17715;DHT22;8977;50.902;4.314;2023-05-07T09:12:32;19.10;99.90
17715;DHT22;8977;50.902;4.314;2023-05-07T09:15:00;19.20;99.90
17715;DHT22;8977;50.902;4.314;2023-05-07T09:17:29;19.10;99.90
17715;DHT22;8977;50.902;4.314;2023-05-07T09:19:56;19.10;99.90
17715;DHT22;8977;50.902;4.314;2023-05-07T09:22:31;19.00;99.90
17715;DHT22;8977;50.902;4.314;2023-05-07T09:24:58;19.00;99.90
17715;DHT22;8977;50.902;4.314;2023-05-07T09:27:26;19.00;99.90
17715;DHT22;8977;50.902;4.314;2023-05-07T09:29:54;19.10;99.90
17715;DHT22;8977;50.902;4.314;2023-05-07T09:32:21;19.10;99.90
17715;DHT22;8977;50.902;4.314;2023-05-07T09:34:50;19.10;99.90
17715;DHT22;8977;50.902;4.314;2023-05-07T09:37:17;19.10;99.90
17715;DHT22;8977;50.902;4.314;2023-05-07T09:39:46;19.10;99.90
17715;DHT22;8977;50.902;4.314;2023-05-07T09:42:14;19.10;99.90
17715;DHT22;8977;50.902;4.314;2023-05-07T09:44:43;19.10;99.90
17715;DHT22;8977;50.902;4.314;2023-05-07T09:47:10;19.10;99.90
17715;DHT22;8977;50.902;4.314;2023-05-07T09:49:39;19.20;99.90
17715;DHT22;8977;50.902;4.314;2023-05-07T09:52:09;19.20;99.90
17715;DHT22;8977;50.902;4.314;2023-05-07T09:54:36;19.20;99.90
17715;DHT22;8977;50.902;4.314;2023-05-07T09:57:07;19.20;99.90
17715;DHT22;8977;50.902;4.314;2023-05-07T09:59:37;19.30;99.90
17715;DHT22;8977;50.902;4.314;2023-05-07T10:02:04;19.30;99.90
17715;DHT22;8977;50.902;4.314;2023-05-07T10:04:32;19.30;99.90
17715;DHT22;8977;50.902;4.314;2023-05-07T10:06:59;19.30;99.90
17715;DHT22;8977;50.902;4.314;2023-05-07T10:09:28;19.30;99.90
17715;DHT22;8977;50.902;4.314;2023-05-07T10:11:56;19.30;99.90
17715;DHT22;8977;50.902;4.314;2023-05-07T10:14:24;19.30;99.90
17715;DHT22;8977;50.902;4.314;2023-05-07T10:16:53;19.20;99.90
17715;DHT22;8977;50.902;4.314;2023-05-07T10:19:22;19.20;99.90
17715;DHT22;8977;50.902;4.314;2023-05-07T10:21:54;19.30;99.90
17715;DHT22;8977;50.902;4.314;2023-05-07T10:24:29;19.30;99.90
17715;DHT22;8977;50.902;4.314;2023-05-07T10:26:59;19.30;99.90
17715;DHT22;8977;50.902;4.314;2023-05-07T10:29:33;19.30;99.90
17715;DHT22;8977;50.902;4.314;2023-05-07T10:32:19;19.40;99.90
17715;DHT22;8977;50.902;4.314;2023-05-07T10:34:55;19.40;99.90
17715;DHT22;8977;50.902;4.314;2023-05-07T10:37:23;19.40;99.90
17715;DHT22;8977;50.902;4.314;2023-05-07T10:39:53;19.30;99.90
17715;DHT22;8977;50.902;4.314;2023-05-07T10:42:20;19.30;99.90
17715;DHT22;8977;50.902;4.314;2023-05-07T10:44:48;19.30;99.90
17715;DHT22;8977;50.902;4.314;2023-05-07T10:47:15;19.30;99.90
17715;DHT22;8977;50.902;4.314;2023-05-07T10:53:23;19.40;99.90
17715;DHT22;8977;50.902;4.314;2023-05-07T10:59:33;19.30;99.90
17715;DHT22;8977;50.902;4.314;2023-05-07T11:02:07;19.30;99.90
17715;DHT22;8977;50.902;4.314;2023-05-07T11:04:35;19.40;99.90
17715;DHT22;8977;50.902;4.314;2023-05-07T11:07:26;19.40;99.90
17715;DHT22;8977;50.902;4.314;2023-05-07T11:10:04;19.40;99.90
17715;DHT22;8977;50.902;4.314;2023-05-07T11:12:51;19.40;99.90
17715;DHT22;8977;50.902;4.314;2023-05-07T11:15:42;19.40;99.90
17715;DHT22;8977;50.902;4.314;2023-05-07T11:18:10;19.40;99.90
17715;DHT22;8977;50.902;4.314;2023-05-07T11:20:58;19.40;99.90
17715;DHT22;8977;50.902;4.314;2023-05-07T11:23:56;19.40;99.90
17715;DHT22;8977;50.902;4.314;2023-05-07T11:26:30;19.40;99.90
17715;DHT22;8977;50.902;4.314;2023-05-07T11:29:00;19.40;99.90
17715;DHT22;8977;50.902;4.314;2023-05-07T11:31:27;19.40;99.90
17715;DHT22;8977;50.902;4.314;2023-05-07T11:33:55;19.40;99.90
17715;DHT22;8977;50.902;4.314;2023-05-07T11:36:23;19.40;99.90
17715;DHT22;8977;50.902;4.314;2023-05-07T11:38:51;19.50;99.90
17715;DHT22;8977;50.902;4.314;2023-05-07T11:41:18;19.50;99.90
17715;DHT22;8977;50.902;4.314;2023-05-07T11:43:56;19.50;99.90
17715;DHT22;8977;50.902;4.314;2023-05-07T11:46:26;19.60;99.90
17715;DHT22;8977;50.902;4.314;2023-05-07T11:48:53;19.60;99.90
17715;DHT22;8977;50.902;4.314;2023-05-07T11:51:21;19.60;99.90
17715;DHT22;8977;50.902;4.314;2023-05-07T11:53:49;19.60;99.90
17715;DHT22;8977;50.902;4.314;2023-05-07T11:56:17;19.60;99.90
17715;DHT22;8977;50.902;4.314;2023-05-07T11:58:45;19.70;99.90
17715;DHT22;8977;50.902;4.314;2023-05-07T12:01:13;19.60;99.90
17715;DHT22;8977;50.902;4.314;2023-05-07T12:03:42;19.60;99.90
17715;DHT22;8977;50.902;4.314;2023-05-07T12:06:11;19.60;99.90
17715;DHT22;8977;50.902;4.314;2023-05-07T12:08:39;19.60;99.90
17715;DHT22;8977;50.902;4.314;2023-05-07T12:11:12;19.70;99.90
17715;DHT22;8977;50.902;4.314;2023-05-07T12:13:40;19.60;99.90
17715;DHT22;8977;50.902;4.314;2023-05-07T12:16:07;19.60;99.90
17715;DHT22;8977;50.902;4.314;2023-05-07T12:18:35;19.60;99.90
17715;DHT22;8977;50.902;4.314;2023-05-07T12:21:06;19.60;99.90
17715;DHT22;8977;50.902;4.314;2023-05-07T12:23:34;19.70;99.90
17715;DHT22;8977;50.902;4.314;2023-05-07T12:26:01;19.70;99.90
17715;DHT22;8977;50.902;4.314;2023-05-07T12:28:29;19.70;99.90
17715;DHT22;8977;50.902;4.314;2023-05-07T12:30:57;19.80;99.90
17715;DHT22;8977;50.902;4.314;2023-05-07T12:33:25;19.70;99.90
17715;DHT22;8977;50.902;4.314;2023-05-07T12:35:55;19.80;99.90
17715;DHT22;8977;50.902;4.314;2023-05-07T12:38:23;19.70;99.90
17715;DHT22;8977;50.902;4.314;2023-05-07T12:40:53;19.70;99.90
17715;DHT22;8977;50.902;4.314;2023-05-07T12:43:21;19.70;99.90
17715;DHT22;8977;50.902;4.314;2023-05-07T12:45:50;19.70;99.90
17715;DHT22;8977;50.902;4.314;2023-05-07T12:48:17;19.80;99.90
17715;DHT22;8977;50.902;4.314;2023-05-07T12:50:49;19.80;99.90
17715;DHT22;8977;50.902;4.314;2023-05-07T12:53:16;19.80;99.90
17715;DHT22;8977;50.902;4.314;2023-05-07T12:55:46;19.80;99.90
17715;DHT22;8977;50.902;4.314;2023-05-07T12:58:16;19.90;99.90
17715;DHT22;8977;50.902;4.314;2023-05-07T13:00:45;19.80;99.90
17715;DHT22;8977;50.902;4.314;2023-05-07T13:03:21;19.90;99.90
17715;DHT22;8977;50.902;4.314;2023-05-07T13:05:48;19.90;99.90
17715;DHT22;8977;50.902;4.314;2023-05-07T13:08:27;19.90;99.90
17715;DHT22;8977;50.902;4.314;2023-05-07T13:10:56;19.90;99.90
17715;DHT22;8977;50.902;4.314;2023-05-07T13:13:23;19.90;99.90
17715;DHT22;8977;50.902;4.314;2023-05-07T13:15:50;19.90;99.90
17715;DHT22;8977;50.902;4.314;2023-05-07T13:18:17;20.00;99.90
17715;DHT22;8977;50.902;4.314;2023-05-07T13:20:44;19.90;99.90
17715;DHT22;8977;50.902;4.314;2023-05-07T13:23:11;20.00;99.90
17715;DHT22;8977;50.902;4.314;2023-05-07T13:25:38;20.00;99.90
17715;DHT22;8977;50.902;4.314;2023-05-07T13:28:06;19.90;99.90
17715;DHT22;8977;50.902;4.314;2023-05-07T13:30:34;19.90;99.90
17715;DHT22;8977;50.902;4.314;2023-05-07T13:33:01;20.00;99.90
17715;DHT22;8977;50.902;4.314;2023-05-07T13:35:28;20.00;99.90
17715;DHT22;8977;50.902;4.314;2023-05-07T13:37:55;20.00;99.90
17715;DHT22;8977;50.902;4.314;2023-05-07T13:40:22;20.00;99.90
17715;DHT22;8977;50.902;4.314;2023-05-07T13:42:49;20.00;99.90
17715;DHT22;8977;50.902;4.314;2023-05-07T13:45:18;20.00;99.90
17715;DHT22;8977;50.902;4.314;2023-05-07T13:47:45;20.00;99.90
17715;DHT22;8977;50.902;4.314;2023-05-07T13:50:13;20.00;99.90
17715;DHT22;8977;50.902;4.314;2023-05-07T13:52:41;19.90;99.90
17715;DHT22;8977;50.902;4.314;2023-05-07T13:55:09;20.00;99.90
17715;DHT22;8977;50.902;4.314;2023-05-07T13:57:36;20.00;99.90
17715;DHT22;8977;50.902;4.314;2023-05-07T14:00:04;20.00;99.90
17715;DHT22;8977;50.902;4.314;2023-05-07T14:02:33;20.00;99.90
17715;DHT22;8977;50.902;4.314;2023-05-07T14:05:00;20.00;99.90
17715;DHT22;8977;50.902;4.314;2023-05-07T14:07:27;20.00;99.90
17715;DHT22;8977;50.902;4.314;2023-05-07T14:09:54;20.00;99.90
17715;DHT22;8977;50.902;4.314;2023-05-07T14:12:21;20.00;99.90
17715;DHT22;8977;50.902;4.314;2023-05-07T14:14:48;20.00;99.90
17715;DHT22;8977;50.902;4.314;2023-05-07T14:17:15;20.00;99.90
17715;DHT22;8977;50.902;4.314;2023-05-07T14:19:44;20.00;99.90
17715;DHT22;8977;50.902;4.314;2023-05-07T14:22:12;20.00;99.90
17715;DHT22;8977;50.902;4.314;2023-05-07T14:24:39;20.00;99.90
17715;DHT22;8977;50.902;4.314;2023-05-07T14:27:06;20.00;99.90
17715;DHT22;8977;50.902;4.314;2023-05-07T14:29:33;20.00;99.90
17715;DHT22;8977;50.902;4.314;2023-05-07T14:32:01;20.00;99.90
17715;DHT22;8977;50.902;4.314;2023-05-07T14:34:28;20.10;99.90
17715;DHT22;8977;50.902;4.314;2023-05-07T14:36:57;20.10;99.90
17715;DHT22;8977;50.902;4.314;2023-05-07T14:39:24;20.00;99.90
17715;DHT22;8977;50.902;4.314;2023-05-07T14:41:51;20.00;99.90
17715;DHT22;8977;50.902;4.314;2023-05-07T14:44:20;20.00;99.90
17715;DHT22;8977;50.902;4.314;2023-05-07T14:46:47;20.00;99.90
17715;DHT22;8977;50.902;4.314;2023-05-07T14:49:14;20.00;99.90
17715;DHT22;8977;50.902;4.314;2023-05-07T14:51:43;20.00;99.90
17715;DHT22;8977;50.902;4.314;2023-05-07T14:54:12;20.00;99.90
17715;DHT22;8977;50.902;4.314;2023-05-07T14:56:39;20.00;99.90
17715;DHT22;8977;50.902;4.314;2023-05-07T14:59:06;20.00;99.90
17715;DHT22;8977;50.902;4.314;2023-05-07T15:01:34;20.00;99.90
17715;DHT22;8977;50.902;4.314;2023-05-07T15:04:03;20.10;99.90
17715;DHT22;8977;50.902;4.314;2023-05-07T15:06:30;20.10;99.90
17715;DHT22;8977;50.902;4.314;2023-05-07T15:08:57;20.00;99.90
17715;DHT22;8977;50.902;4.314;2023-05-07T15:11:25;20.00;99.90
17715;DHT22;8977;50.902;4.314;2023-05-07T15:13:52;20.00;99.90
17715;DHT22;8977;50.902;4.314;2023-05-07T15:16:19;20.00;99.90
17715;DHT22;8977;50.902;4.314;2023-05-07T15:18:46;20.00;99.90
17715;DHT22;8977;50.902;4.314;2023-05-07T15:21:13;20.10;99.90
17715;DHT22;8977;50.902;4.314;2023-05-07T15:23:40;20.10;99.90
17715;DHT22;8977;50.902;4.314;2023-05-07T15:26:09;20.10;99.90
17715;DHT22;8977;50.902;4.314;2023-05-07T15:28:37;20.10;99.90
17715;DHT22;8977;50.902;4.314;2023-05-07T15:31:04;20.10;99.90
17715;DHT22;8977;50.902;4.314;2023-05-07T15:33:32;20.10;99.90
17715;DHT22;8977;50.902;4.314;2023-05-07T15:35:59;20.10;99.90
17715;DHT22;8977;50.902;4.314;2023-05-07T15:38:27;20.10;99.90
17715;DHT22;8977;50.902;4.314;2023-05-07T15:40:54;20.10;99.90
17715;DHT22;8977;50.902;4.314;2023-05-07T15:43:21;20.10;99.90
17715;DHT22;8977;50.902;4.314;2023-05-07T15:45:49;20.10;99.90
17715;DHT22;8977;50.902;4.314;2023-05-07T15:48:16;20.10;99.90
17715;DHT22;8977;50.902;4.314;2023-05-07T15:50:43;20.10;99.90
17715;DHT22;8977;50.902;4.314;2023-05-07T15:53:10;20.00;99.90
17715;DHT22;8977;50.902;4.314;2023-05-07T15:55:39;20.10;99.90
17715;DHT22;8977;50.902;4.314;2023-05-07T15:58:07;20.00;99.90
17715;DHT22;8977;50.902;4.314;2023-05-07T16:00:34;20.00;99.90
17715;DHT22;8977;50.902;4.314;2023-05-07T16:03:03;20.10;99.90